createdAt,value
2023-03-20T00:02:01.827Z,4.20
2023-03-20T00:04:29.674Z,4.20
2023-03-20T00:06:56.814Z,4.20
2023-03-20T00:09:25.749Z,4.10
2023-03-20T00:11:55.619Z,4.00
2023-03-20T00:14:24.818Z,4.00
2023-03-20T00:16:52.461Z,4.00
2023-03-20T00:19:25.981Z,3.90
2023-03-20T00:21:55.030Z,3.90
2023-03-20T00:24:23.615Z,3.90
2023-03-20T00:26:52.150Z,3.80
2023-03-20T00:29:26.768Z,3.70
2023-03-20T00:31:54.929Z,3.60
2023-03-20T00:34:24.389Z,3.50
2023-03-20T00:36:52.501Z,3.50
2023-03-20T00:39:20.545Z,3.40
2023-03-20T00:41:54.416Z,3.40
2023-03-20T00:44:29.947Z,3.40
2023-03-20T00:47:00.628Z,3.30
2023-03-20T00:49:32.558Z,3.30
2023-03-20T00:51:59.768Z,3.30
2023-03-20T00:54:27.110Z,3.20
2023-03-20T00:57:06.456Z,3.20
2023-03-20T00:59:38.133Z,3.20
2023-03-20T01:02:06.300Z,3.20
2023-03-20T01:04:38.943Z,3.20
2023-03-20T01:07:07.581Z,3.20
2023-03-20T01:09:34.822Z,3.20
2023-03-20T01:12:03.251Z,3.20
2023-03-20T01:14:30.690Z,3.20
2023-03-20T01:16:57.649Z,3.10
2023-03-20T01:19:24.903Z,3.10
2023-03-20T01:21:51.915Z,3.00
2023-03-20T01:24:19.115Z,2.90
2023-03-20T01:26:46.913Z,2.90
2023-03-20T01:29:22.016Z,2.90
2023-03-20T01:31:50.067Z,2.90
2023-03-20T01:34:17.800Z,2.90
2023-03-20T01:36:53.471Z,2.90
2023-03-20T01:39:24.282Z,2.90
2023-03-20T01:41:52.866Z,2.90
2023-03-20T01:44:24.281Z,2.90
2023-03-20T01:46:55.454Z,2.80
2023-03-20T01:49:22.623Z,2.80
2023-03-20T01:51:51.816Z,2.70
2023-03-20T01:54:23.675Z,2.80
2023-03-20T01:56:57.271Z,2.80
2023-03-20T01:59:36.446Z,2.90
2023-03-20T02:02:05.051Z,2.90
2023-03-20T02:04:38.536Z,2.90
2023-03-20T02:07:07.302Z,2.90
2023-03-20T02:09:34.577Z,2.90
2023-03-20T02:12:02.661Z,3.00
2023-03-20T02:14:31.637Z,3.00
2023-03-20T02:16:58.794Z,3.00
2023-03-20T02:19:38.925Z,3.00
2023-03-20T02:22:24.425Z,3.00
2023-03-20T02:25:29.488Z,3.00
2023-03-20T02:28:35.726Z,3.10
2023-03-20T02:31:40.625Z,3.00
2023-03-20T02:34:29.769Z,3.00
2023-03-20T02:37:02.758Z,3.00
2023-03-20T02:40:01.001Z,2.90
2023-03-20T02:42:39.874Z,2.80
2023-03-20T02:45:31.142Z,2.80
2023-03-20T02:48:19.533Z,2.80
2023-03-20T02:51:02.958Z,2.90
2023-03-20T02:53:39.750Z,2.90
2023-03-20T02:56:34.054Z,2.90
2023-03-20T02:59:35.474Z,2.80
2023-03-20T03:02:12.800Z,2.80
2023-03-20T03:04:50.080Z,2.80
2023-03-20T03:07:21.361Z,2.70
2023-03-20T03:10:02.308Z,2.70
2023-03-20T03:12:46.005Z,2.70
2023-03-20T03:15:30.595Z,2.70
2023-03-20T03:17:59.333Z,2.60
2023-03-20T03:20:32.679Z,2.60
2023-03-20T03:23:00.446Z,2.60
2023-03-20T03:25:33.142Z,2.60
2023-03-20T03:28:04.716Z,2.60
2023-03-20T03:30:37.156Z,2.60
2023-03-20T03:33:19.730Z,2.60
2023-03-20T03:35:48.430Z,2.60
2023-03-20T03:38:40.404Z,2.60
2023-03-20T03:41:29.882Z,2.60
2023-03-20T03:44:17.706Z,2.60
2023-03-20T03:47:04.944Z,2.60
2023-03-20T03:49:36.694Z,2.60
2023-03-20T03:52:09.192Z,2.60
2023-03-20T03:55:02.860Z,2.60
2023-03-20T03:57:37.931Z,2.60
2023-03-20T04:00:07.102Z,2.50
2023-03-20T04:02:35.398Z,2.40
2023-03-20T04:05:04.186Z,2.40
2023-03-20T04:07:31.538Z,2.40
2023-03-20T04:09:58.732Z,2.30
2023-03-20T04:12:32.990Z,2.20
2023-03-20T04:15:02.897Z,2.20
2023-03-20T04:17:30.602Z,2.20
2023-03-20T04:19:57.701Z,2.10
2023-03-20T04:22:24.994Z,2.20
2023-03-20T04:24:52.734Z,2.20
2023-03-20T04:27:21.053Z,2.30
2023-03-20T04:29:48.148Z,2.30
2023-03-20T04:32:15.424Z,2.40
2023-03-20T04:34:42.381Z,2.40
2023-03-20T04:37:09.666Z,2.40
2023-03-20T04:39:37.489Z,2.40
2023-03-20T04:42:05.643Z,2.40
2023-03-20T04:44:32.828Z,2.40
2023-03-20T04:47:01.335Z,2.40
2023-03-20T04:49:28.830Z,2.30
2023-03-20T04:51:56.535Z,2.30
2023-03-20T04:54:23.555Z,2.30
2023-03-20T04:56:50.856Z,2.30
2023-03-20T04:59:18.141Z,2.30
2023-03-20T05:01:45.489Z,2.40
2023-03-20T05:04:12.632Z,2.40
2023-03-20T05:06:40.192Z,2.40
2023-03-20T05:09:07.165Z,2.40
2023-03-20T05:11:34.373Z,2.50
2023-03-20T05:14:01.308Z,2.60
2023-03-20T05:16:28.593Z,2.60
2023-03-20T05:18:55.815Z,2.80
2023-03-20T05:21:23.041Z,2.90
2023-03-20T05:23:50.333Z,3.00
2023-03-20T05:26:17.604Z,3.20
2023-03-20T05:28:44.547Z,3.30
2023-03-20T05:31:12.016Z,3.40
2023-03-20T05:33:39.109Z,3.60
2023-03-20T05:36:07.551Z,3.70
2023-03-20T05:38:34.524Z,3.80
2023-03-20T05:41:02.004Z,4.00
2023-03-20T05:43:29.260Z,4.30
2023-03-20T05:45:56.924Z,4.50
2023-03-20T05:48:24.534Z,4.70
2023-03-20T05:50:51.840Z,4.80
2023-03-20T05:53:18.864Z,5.00
2023-03-20T05:55:46.308Z,5.10
2023-03-20T05:58:13.421Z,5.30
2023-03-20T06:00:40.823Z,5.60
2023-03-20T06:03:08.027Z,6.00
2023-03-20T06:05:36.604Z,6.50
2023-03-20T06:08:04.979Z,7.00
2023-03-20T06:10:32.243Z,7.40
2023-03-20T06:13:01.294Z,7.90
2023-03-20T06:15:29.425Z,8.40
2023-03-20T06:17:57.248Z,8.80
2023-03-20T06:20:24.956Z,9.10
2023-03-20T06:22:52.390Z,9.20
2023-03-20T06:25:20.701Z,9.30
2023-03-20T06:27:48.244Z,9.20
2023-03-20T06:30:16.209Z,9.40
2023-03-20T06:32:43.600Z,9.60
2023-03-20T06:35:13.526Z,10.10
2023-03-20T06:37:40.493Z,10.40
2023-03-20T06:40:08.565Z,10.40
2023-03-20T06:42:35.798Z,10.60
2023-03-20T06:45:03.224Z,10.90
2023-03-20T06:47:30.745Z,11.30
2023-03-20T06:49:58.017Z,11.50
2023-03-20T06:52:25.316Z,11.90
2023-03-20T06:54:52.658Z,12.10
2023-03-20T06:57:20.160Z,11.80
2023-03-20T07:48:12.807Z,15.40
2023-03-20T07:50:40.271Z,16.50
2023-03-20T07:53:07.973Z,16.80
2023-03-20T07:55:35.757Z,16.40
2023-03-20T07:58:03.041Z,15.70
2023-03-20T08:00:31.379Z,15.30
2023-03-20T08:02:58.474Z,15.60
2023-03-20T08:05:26.418Z,15.60
2023-03-20T08:07:53.637Z,15.10
2023-03-20T08:10:21.091Z,15.10
2023-03-20T08:12:48.141Z,15.20
2023-03-20T08:15:15.937Z,15.70
2023-03-20T08:17:46.534Z,15.70
2023-03-20T08:20:14.946Z,15.70
2023-03-20T08:22:42.803Z,15.90
2023-03-20T08:25:10.635Z,15.90
2023-03-20T08:27:38.807Z,15.80
2023-03-20T08:30:07.218Z,16.20
2023-03-20T08:32:34.295Z,16.80
2023-03-20T08:35:01.641Z,16.60
2023-03-20T08:37:28.639Z,16.20
2023-03-20T08:39:55.882Z,16.80
2023-03-20T08:42:23.023Z,16.40
2023-03-20T08:44:50.555Z,16.50
2023-03-20T08:47:17.602Z,17.00
2023-03-20T08:49:44.890Z,17.50
2023-03-20T08:52:11.850Z,17.50
2023-03-20T08:54:39.108Z,17.80
2023-03-20T08:57:06.205Z,17.90
2023-03-20T08:59:33.602Z,18.20
2023-03-20T09:02:00.877Z,18.60
2023-03-20T09:04:28.289Z,18.80
2023-03-20T09:06:55.327Z,19.10
2023-03-20T09:09:42.512Z,19.10
2023-03-20T09:12:31.569Z,18.50
2023-03-20T09:15:33.383Z,17.10
2023-03-20T09:18:20.668Z,17.00
2023-03-20T09:20:48.904Z,16.40
2023-03-20T09:23:56.082Z,16.70
2023-03-20T09:26:43.034Z,17.20
2023-03-20T09:29:44.927Z,17.80
2023-03-20T09:32:13.594Z,17.50
2023-03-20T09:35:43.032Z,17.40
2023-03-20T09:38:45.619Z,17.50
2023-03-20T09:41:56.615Z,17.70
2023-03-20T09:44:45.618Z,17.50
2023-03-20T09:47:27.947Z,17.10
2023-03-20T09:50:13.152Z,17.60
2023-03-20T09:53:31.122Z,18.20
2023-03-20T09:56:24.323Z,18.90
2023-03-20T09:59:37.304Z,19.00
2023-03-20T10:02:42.883Z,17.60
2023-03-20T10:05:25.522Z,17.50
2023-03-20T10:07:55.978Z,17.90
2023-03-20T10:10:50.689Z,17.40
2023-03-20T10:13:49.409Z,16.90
2023-03-20T10:16:57.954Z,16.70
2023-03-20T10:19:41.088Z,16.10
2023-03-20T10:22:32.914Z,16.20
2023-03-20T10:25:19.658Z,16.50
2023-03-20T10:27:52.743Z,16.90
2023-03-20T10:30:25.617Z,16.70
2023-03-20T10:33:25.146Z,17.10
2023-03-20T10:35:57.613Z,17.10
2023-03-20T10:38:48.838Z,17.00
2023-03-20T10:41:23.336Z,16.70
2023-03-20T10:43:53.431Z,16.40
2023-03-20T10:46:28.969Z,16.10
2023-03-20T10:49:17.258Z,16.10
2023-03-20T10:51:54.054Z,16.20
2023-03-20T10:54:36.801Z,16.40
2023-03-20T10:57:06.128Z,16.30
2023-03-20T10:59:39.338Z,16.70
2023-03-20T11:02:11.621Z,16.40
2023-03-20T11:04:53.483Z,16.40
2023-03-20T11:07:38.306Z,16.40
2023-03-20T11:10:20.487Z,16.60
2023-03-20T11:12:49.759Z,17.10
2023-03-20T11:15:25.830Z,16.70
2023-03-20T11:17:54.435Z,16.80
2023-03-20T11:20:21.832Z,16.80
2023-03-20T11:22:50.775Z,17.10
2023-03-20T11:25:29.471Z,17.10
2023-03-20T11:28:33.117Z,17.40
2023-03-20T11:31:08.187Z,17.90
2023-03-20T11:33:38.924Z,18.30
2023-03-20T11:36:27.787Z,18.00
2023-03-20T11:39:01.938Z,18.20
2023-03-20T11:41:29.473Z,18.30
2023-03-20T11:43:56.506Z,18.50
2023-03-20T11:46:25.351Z,18.20
2023-03-20T11:49:17.328Z,17.90
2023-03-20T11:51:44.708Z,17.50
2023-03-20T11:54:17.114Z,17.00
2023-03-20T11:56:55.685Z,16.80
2023-03-20T11:59:32.236Z,16.60
2023-03-20T12:02:01.999Z,17.50
2023-03-20T12:04:34.081Z,17.70
2023-03-20T12:07:24.546Z,17.40
2023-03-20T12:09:58.372Z,17.40
2023-03-20T12:12:49.507Z,17.70
2023-03-20T12:15:28.278Z,17.50
2023-03-20T12:18:01.405Z,17.80
2023-03-20T12:20:39.630Z,17.50
2023-03-20T12:23:13.260Z,16.90
2023-03-20T12:25:52.445Z,16.40
2023-03-20T12:28:48.356Z,16.40
2023-03-20T12:31:42.200Z,16.40
2023-03-20T12:34:26.707Z,17.00
2023-03-20T12:36:58.005Z,17.00
2023-03-20T12:39:31.875Z,17.40
2023-03-20T12:42:09.637Z,17.00
2023-03-20T12:44:51.475Z,17.00
2023-03-20T12:47:39.820Z,16.40
2023-03-20T12:50:10.117Z,16.10
2023-03-20T12:52:37.014Z,16.10
2023-03-20T12:55:13.573Z,15.90
2023-03-20T12:58:17.245Z,15.60
2023-03-20T13:00:51.089Z,15.50
2023-03-20T13:03:24.021Z,15.40
2023-03-20T13:06:15.789Z,15.50
2023-03-20T13:08:48.898Z,15.30
2023-03-20T13:11:36.919Z,15.30
2023-03-20T13:14:16.288Z,15.30
2023-03-20T13:16:55.397Z,15.30
2023-03-20T13:19:38.387Z,15.60
2023-03-20T13:22:24.214Z,15.50
2023-03-20T13:24:55.310Z,15.40
2023-03-20T13:27:49.123Z,15.50
2023-03-20T13:30:34.712Z,15.80
2023-03-20T13:33:20.182Z,15.90
2023-03-20T13:35:59.258Z,15.70
2023-03-20T13:38:40.433Z,15.70
2023-03-20T13:41:10.156Z,15.60
2023-03-20T13:43:58.760Z,15.70
2023-03-20T13:46:39.416Z,15.50
2023-03-20T13:49:42.487Z,15.20
2023-03-20T13:52:21.233Z,15.10
2023-03-20T13:55:27.179Z,14.80
2023-03-20T13:58:12.580Z,14.80
2023-03-20T14:00:59.756Z,14.70
2023-03-20T14:03:37.670Z,14.60
2023-03-20T14:06:43.512Z,14.50
2023-03-20T14:09:30.810Z,14.40
2023-03-20T14:12:10.616Z,14.40
2023-03-20T14:14:54.913Z,14.40
2023-03-20T14:17:30.864Z,14.60
2023-03-20T14:20:16.568Z,14.40
2023-03-20T14:22:45.470Z,14.20
2023-03-20T14:25:20.867Z,14.30
2023-03-20T14:28:09.510Z,14.30
2023-03-20T14:30:36.862Z,14.30
2023-03-20T14:33:13.309Z,14.10
2023-03-20T14:35:46.501Z,14.20
2023-03-20T14:38:35.969Z,14.20
2023-03-20T14:41:27.996Z,14.20
2023-03-20T14:44:15.761Z,14.20
2023-03-20T14:46:42.673Z,14.10
2023-03-20T14:49:51.094Z,14.10
2023-03-20T14:52:23.830Z,14.10
2023-03-20T14:54:54.994Z,14.40
2023-03-20T14:57:48.813Z,14.50
2023-03-20T15:00:26.640Z,14.50
2023-03-20T15:03:02.412Z,14.00
2023-03-20T15:05:33.926Z,13.90
2023-03-20T15:08:10.276Z,13.90
2023-03-20T15:10:46.591Z,14.00
2023-03-20T15:13:15.248Z,13.90
2023-03-20T15:16:07.098Z,13.90
2023-03-20T15:18:42.981Z,13.70
2023-03-20T15:21:37.655Z,13.70
2023-03-20T15:24:05.614Z,13.60
2023-03-20T15:26:35.564Z,13.60
2023-03-20T15:29:16.074Z,13.40
2023-03-20T15:31:43.331Z,13.30
2023-03-20T15:34:19.438Z,13.10
2023-03-20T15:36:47.333Z,13.00
2023-03-20T15:39:20.746Z,13.00
2023-03-20T15:41:56.013Z,13.00
2023-03-20T15:44:27.423Z,13.00
2023-03-20T15:47:10.748Z,13.10
2023-03-20T15:49:42.946Z,13.10
2023-03-20T15:52:25.954Z,13.00
2023-03-20T15:54:54.503Z,12.90
2023-03-20T15:57:36.120Z,12.90
2023-03-20T16:00:34.181Z,12.80
2023-03-20T16:03:04.226Z,12.70
2023-03-20T16:05:31.921Z,12.70
2023-03-20T16:08:13.170Z,12.60
2023-03-20T16:10:43.121Z,12.60
2023-03-20T16:13:17.158Z,12.60
2023-03-20T16:15:44.615Z,12.60
2023-03-20T16:18:16.507Z,12.40
2023-03-20T16:21:06.322Z,12.30
2023-03-20T16:23:37.821Z,12.00
2023-03-20T16:26:13.267Z,11.90
2023-03-20T16:28:40.575Z,11.90
2023-03-20T16:31:16.493Z,11.80
2023-03-20T16:33:44.964Z,11.80
2023-03-20T16:36:22.641Z,11.70
2023-03-20T16:39:08.565Z,11.50
2023-03-20T16:41:40.548Z,11.50
2023-03-20T16:44:11.499Z,11.40
2023-03-20T16:46:53.934Z,11.30
2023-03-20T16:49:29.732Z,11.30
2023-03-20T16:52:02.662Z,11.20
2023-03-20T16:54:34.628Z,11.30
2023-03-20T16:57:04.001Z,11.30
2023-03-20T16:59:31.446Z,11.20
2023-03-20T17:02:01.714Z,11.20
2023-03-20T17:04:38.842Z,11.10
2023-03-20T17:07:25.438Z,11.10
2023-03-20T17:09:59.886Z,11.00
2023-03-20T17:12:31.194Z,10.90
2023-03-20T17:14:58.512Z,10.90
2023-03-20T17:17:26.453Z,10.90
2023-03-20T17:19:53.928Z,10.80
2023-03-20T17:22:22.776Z,10.80
2023-03-20T17:24:50.833Z,10.70
2023-03-20T17:27:19.611Z,10.80
2023-03-20T17:29:49.743Z,10.90
2023-03-20T17:32:23.939Z,10.90
2023-03-20T17:34:51.896Z,10.80
2023-03-20T17:37:30.092Z,10.70
2023-03-20T17:39:57.890Z,10.70
2023-03-20T17:42:31.199Z,10.60
2023-03-20T17:44:59.845Z,10.60
2023-03-20T17:47:28.448Z,10.50
2023-03-20T17:49:56.043Z,10.50
2023-03-20T17:52:26.526Z,10.40
2023-03-20T17:54:54.796Z,10.30
2023-03-20T17:57:37.238Z,10.30
2023-03-20T18:00:08.745Z,10.20
2023-03-20T18:02:35.940Z,10.10
2023-03-20T18:05:03.283Z,10.10
2023-03-20T18:07:30.427Z,10.10
2023-03-20T18:09:57.830Z,10.10
2023-03-20T18:12:24.858Z,10.00
2023-03-20T18:14:52.252Z,10.10
2023-03-20T18:17:19.214Z,10.00
2023-03-20T18:19:46.602Z,10.00
2023-03-20T18:22:13.657Z,10.00
2023-03-20T18:24:43.330Z,10.00
2023-03-20T18:27:11.926Z,10.00
2023-03-20T18:29:39.486Z,10.00
2023-03-20T18:32:06.693Z,10.00
2023-03-20T18:34:33.985Z,10.00
2023-03-20T18:37:01.397Z,10.00
2023-03-20T18:39:28.765Z,10.00
2023-03-20T18:41:55.881Z,10.00
2023-03-20T18:44:23.195Z,10.00
2023-03-20T18:46:50.342Z,10.00
2023-03-20T18:49:19.175Z,10.00
2023-03-20T18:51:46.569Z,10.10
2023-03-20T18:54:13.874Z,10.20
2023-03-20T18:56:41.141Z,10.20
2023-03-20T18:59:12.475Z,10.30
2023-03-20T19:01:39.652Z,10.30
2023-03-20T19:04:07.075Z,10.30
2023-03-20T19:06:34.407Z,10.30
2023-03-20T19:09:05.280Z,10.40
2023-03-20T19:11:32.543Z,10.40
2023-03-20T19:13:59.857Z,10.40
2023-03-20T19:16:35.270Z,10.30
2023-03-20T19:19:04.483Z,10.30
2023-03-20T19:21:33.570Z,10.40
2023-03-20T19:24:06.052Z,10.40
2023-03-20T19:26:35.280Z,10.30
2023-03-20T19:29:08.296Z,10.20
2023-03-20T19:31:35.943Z,10.30
2023-03-20T19:34:03.489Z,10.20
2023-03-20T19:36:36.327Z,10.20
2023-03-20T19:39:06.387Z,10.10
2023-03-20T19:41:34.166Z,10.10
2023-03-20T19:44:01.770Z,10.10
2023-03-20T19:46:39.768Z,10.00
2023-03-20T19:49:20.330Z,10.00
2023-03-20T19:51:48.819Z,10.00
2023-03-20T19:54:16.757Z,10.00
2023-03-20T19:56:43.741Z,9.90
2023-03-20T19:59:11.079Z,9.90
2023-03-20T20:01:38.216Z,9.90
2023-03-20T20:04:05.954Z,10.00
2023-03-20T20:06:33.396Z,10.00
2023-03-20T20:09:01.428Z,10.00
2023-03-20T20:11:29.238Z,10.00
2023-03-20T20:16:45.347Z,10.10
2023-03-20T20:19:12.887Z,10.10
2023-03-20T20:24:27.419Z,10.20
2023-03-20T20:27:14.785Z,10.30
2023-03-20T20:29:43.600Z,10.40
2023-03-20T20:32:10.693Z,10.40
2023-03-20T20:38:14.019Z,10.60
2023-03-20T20:40:16.940Z,10.60
2023-03-20T20:42:47.501Z,10.70
2023-03-20T20:45:15.488Z,10.60
2023-03-20T20:47:44.891Z,10.60
2023-03-20T20:50:14.252Z,10.60
2023-03-20T20:52:42.371Z,10.50
2023-03-20T20:55:22.506Z,10.40
2023-03-20T20:57:52.043Z,10.30
2023-03-20T21:00:21.377Z,10.30
2023-03-20T21:02:48.383Z,10.20
2023-03-20T21:05:17.483Z,10.20
2023-03-20T21:07:46.350Z,10.10
2023-03-20T21:10:16.760Z,10.00
2023-03-20T21:12:58.124Z,10.00
2023-03-20T21:15:27.420Z,9.90
2023-03-20T21:18:00.952Z,9.90
2023-03-20T21:20:30.568Z,9.80
2023-03-20T21:22:57.695Z,9.70
2023-03-20T21:25:38.673Z,9.70
2023-03-20T21:28:07.542Z,9.60
2023-03-20T21:30:34.838Z,9.70
2023-03-20T21:33:02.726Z,9.60
2023-03-20T21:35:30.001Z,9.50
2023-03-20T21:40:45.031Z,9.40
2023-03-20T21:43:12.621Z,9.30
2023-03-20T21:49:29.942Z,9.30
2023-03-20T21:57:39.565Z,9.20
2023-03-20T22:00:14.929Z,9.20
2023-03-20T22:02:28.172Z,9.10
2023-03-20T22:34:05.994Z,9.20
2023-03-20T22:36:33.221Z,9.20
2023-03-20T22:39:14.032Z,9.20
2023-03-20T22:42:06.897Z,9.20
2023-03-20T22:46:55.676Z,9.20
2023-03-20T22:49:22.705Z,9.10
2023-03-20T22:52:11.210Z,9.10
2023-03-20T22:54:38.802Z,9.10
2023-03-20T22:57:06.444Z,9.00
2023-03-20T22:59:33.406Z,9.00
2023-03-20T23:02:00.802Z,9.20
2023-03-20T23:04:29.951Z,9.10
2023-03-20T23:06:57.358Z,9.00
2023-03-20T23:09:24.302Z,9.00
2023-03-20T23:11:51.588Z,9.00
2023-03-20T23:14:21.588Z,9.00
2023-03-20T23:16:50.442Z,9.00
2023-03-20T23:19:17.610Z,8.90
2023-03-20T23:21:44.989Z,8.90
2023-03-20T23:24:12.006Z,9.00
2023-03-20T23:26:39.312Z,8.90
2023-03-20T23:29:06.483Z,8.80
2023-03-20T23:31:33.838Z,8.80
2023-03-20T23:34:00.972Z,8.80
2023-03-20T23:36:36.587Z,8.80
2023-03-20T23:39:09.610Z,8.70
2023-03-20T23:44:25.027Z,8.60
2023-03-20T23:46:52.350Z,8.60
2023-03-20T23:49:19.298Z,8.60
2023-03-20T23:51:46.872Z,8.60
2023-03-20T23:54:13.896Z,8.60
2023-03-20T23:56:41.168Z,8.60
2023-03-20T23:59:20.582Z,8.60
